Meteo Giornale » Osservazioni meteo Stati Uniti (USA) » Moody
ore: 22:55 - Osservazioni Meteo Moody
Lat. 30° 58' N Lon. 83° 12' W Alt. 71 metri s.l.m.
27 °C
Sereno
Temp. 24 Ore
23 °C
33 °C
Est/Sud-Est
7.4 Km/h
Dew point 24 °C
Umidità 83 %
Visibilità 10 Km
Il sole sorge alle ore 07:08
Il sole tramonta alle ore 19:57
| Data e Ora | Cielo e Fenomeni | T °C | DP °C | Um. % | Pres. hPa | Vis. km | Vento km/h | |
|---|---|---|---|---|---|---|---|---|
| Oggi h: 22:55 | Sereno | 27 | 24 | 83 | 1018 | 10 | E/SE 7.4 | |
| Oggi h: 21:55 | Sereno | 28 | 25 | 83 | 1018 | 10 | E 7.4 | |
| Oggi h: 20:55 | Molto Nuvoloso | 28 | 25 | 83 | 1017 | 10 | N 5.5 | |
| Oggi h: 19:55 | Nuvoloso | 29 | 24 | 74 | 1017 | 10 | E/SE 9.3 | |
| Oggi h: 18:55 | Sereno | 30 | 23 | 66 | 1016 | 10 | E/SE 9.3 | |
| Oggi h: 17:55 | Sereno | 32 | 23 | 59 | 1016 | 10 | E 14.8 | |
| Oggi h: 16:56 | Poco Nuvoloso | 31 | 23 | 62 | 1017 | 10 | E/SE 9.3 | |
| Oggi h: 16:55 | Poco Nuvoloso | 31 | 23 | 62 | 1017 | 10 | E/SE 11.1 | |
| Oggi h: 15:55 | Poco Nuvoloso | 29 | 23 | 70 | 1017 | 10 | N 0 | |
| Oggi h: 15:44 | Nuvoloso | 29 | 24 | 74 | 1017 | 10 | N 0 | |
| Oggi h: 15:41 | Pioggia | 28 | 24 | 78 | 1017 | 10 | N/NE 9.3 | |
| Oggi h: 14:55 | Nuvoloso | 33 | 23 | 55 | 1017 | 10 | N/NE 9.3 | |
| Oggi h: 13:55 | Poco Nuvoloso | 33 | 23 | 55 | 1018 | 10 | N 5.5 | |
| Oggi h: 12:55 | Poco Nuvoloso | 31 | 23 | 62 | 1019 | 10 | NE 9.3 | |
| Oggi h: 12:35 | Nuvoloso | 30 | 23 | 66 | 1019 | 10 | SE 13 | |
| Oggi h: 12:15 | Molto Nuvoloso | 29 | 23 | 70 | 1019 | 10 | E 7.4 | |
| Oggi h: 12:05 | Molto Nuvoloso | 29 | 24 | 74 | 1019 | 10 | NE 11.1 | |
| Oggi h: 12:00 | Molto Nuvoloso | 30 | 24 | 70 | 1019 | 10 | N/NE 11.1 | |
| Oggi h: 11:55 | Molto Nuvoloso | 29 | 24 | 74 | 1019 | 10 | N/NE 9.3 | |
| Oggi h: 11:40 | Molto Nuvoloso | 29 | 24 | 74 | 1020 | 10 | NE 9.3 | |
| Oggi h: 11:15 | Coperto | 29 | 25 | 79 | 1019 | 10 | NE 11.1 | |
| Oggi h: 10:55 | Molto Nuvoloso | 29 | 26 | 83 | 1019 | 10 | NE 11.1 | |
| Oggi h: 10:50 | Molto Nuvoloso | 28 | 26 | 88 | 1019 | 10 | NE 13 | |
| Oggi h: 10:30 | Coperto | 27 | 27 | 100 | 1019 | 10 | NE 9.3 | |
| Oggi h: 10:25 | Coperto | 27 | 26 | 94 | 1019 | 10 | E/NE 14.8 | |
| Oggi h: 09:55 | Coperto | 24 | 24 | 100 | 1019 | 10 | E/NE 13 | |
| Oggi h: 09:53 | Coperto | 24 | 24 | 100 | 1019 | 10 | NE 13 | |
| Oggi h: 09:13 | Pioggia Foschia | 26 | 25 | 94 | 1019 | 8 | NE 11.1 | |
| Oggi h: 09:10 | Foschia | 25 | 25 | 100 | 1019 | 6 | E/NE 11.1 | |
| Oggi h: 09:05 | Foschia | 25 | 25 | 100 | 1019 | 2 | NE 11.1 | |
| Oggi h: 09:00 | Foschia | 25 | 24 | 94 | 1019 | 8 | NE 14.8 | |
| Oggi h: 08:55 | Foschia | 25 | 25 | 100 | 1019 | 2 | E/NE 9.3 | |
| Oggi h: 07:55 | Nebbia | 24 | 24 | 100 | 1018 | 2 | E/NE 7.4 | |
| Oggi h: 07:05 | Foschia | 24 | 23 | 94 | 1018 | 5 | E/NE 9.3 | |
| Oggi h: 06:55 | Foschia | 24 | 23 | 94 | 1018 | 2 | E/NE 9.3 | |
| Oggi h: 06:35 | Foschia | 24 | 23 | 94 | 1018 | 11 | N 5.5 | |
| Oggi h: 06:25 | Foschia | 24 | 23 | 94 | 1018 | 2 | N 5.5 | |
| Oggi h: 05:55 | Foschia | 24 | 23 | 94 | 1017 | 5 | N 5.5 | |
| Oggi h: 05:35 | Foschia | 23 | 23 | 100 | 1017 | 11 | E/NE 7.4 | |
| Oggi h: 05:25 | Foschia | 23 | 23 | 100 | 1017 | 11 | N 0 | |
| Oggi h: 04:55 | Sereno | 23 | 23 | 100 | 1017 | 11 | N 0 | |
| Oggi h: 04:50 | Foschia | 23 | 23 | 100 | 1017 | 6 | N 5.5 | |
| Oggi h: 04:45 | Foschia | 23 | 23 | 100 | 1017 | 2 | N 5.5 | |
| Oggi h: 04:35 | Foschia | 23 | 23 | 100 | 1017 | 2 | N 5.5 | |
| Oggi h: 04:25 | Foschia | 23 | 22 | 94 | 1017 | 5 | N 5.5 | |
| Oggi h: 03:55 | Sereno | 23 | 23 | 100 | 1017 | 10 | N 5.5 | |
| Oggi h: 02:55 | Sereno | 24 | 23 | 94 | 1017 | 10 | N 0 | |
| Oggi h: 01:55 | Sereno | 24 | 24 | 100 | 1018 | 10 | N 0 | |
| Oggi h: 00:55 | Sereno | 24 | 24 | 100 | 1018 | 10 | N 5.5 | |
| Ieri h: 23:55 | Sereno | 24 | 24 | 100 | 1018 | 10 | E 7.4 | |



